createdAt,value
2019-03-08T00:01:00.350Z,100.00
2019-03-08T00:03:29.408Z,100.00
2019-03-08T00:05:58.420Z,100.00
2019-03-08T00:08:27.796Z,100.00
2019-03-08T00:10:56.836Z,100.00
2019-03-08T00:13:25.913Z,100.00
2019-03-08T00:15:54.929Z,100.00
2019-03-08T00:18:24.279Z,100.00
2019-03-08T00:20:53.415Z,100.00
2019-03-08T00:23:22.432Z,100.00
2019-03-08T00:25:52.044Z,100.00
2019-03-08T00:28:21.049Z,100.00
2019-03-08T00:30:50.100Z,100.00
2019-03-08T00:33:19.151Z,100.00
2019-03-08T00:35:48.152Z,100.00
2019-03-08T00:38:17.164Z,100.00
2019-03-08T00:40:46.389Z,100.00
2019-03-08T00:43:15.397Z,100.00
2019-03-08T00:45:44.450Z,100.00
2019-03-08T00:48:13.458Z,100.00
2019-03-08T00:50:42.462Z,100.00
2019-03-08T00:53:11.533Z,100.00
2019-03-08T00:55:40.620Z,100.00
2019-03-08T00:58:09.635Z,100.00
2019-03-08T01:00:39.081Z,100.00
2019-03-08T01:03:08.132Z,100.00
2019-03-08T01:05:37.234Z,100.00
2019-03-08T01:08:06.646Z,100.00
2019-03-08T01:10:35.655Z,100.00
2019-03-08T01:13:04.724Z,100.00
2019-03-08T01:15:33.732Z,100.00
2019-03-08T01:18:02.865Z,100.00
2019-03-08T01:20:31.915Z,100.00
2019-03-08T01:23:01.096Z,100.00
2019-03-08T01:25:30.162Z,100.00
2019-03-08T01:28:04.416Z,100.00
2019-03-08T01:30:33.500Z,100.00
2019-03-08T01:33:02.516Z,100.00
2019-03-08T01:35:31.624Z,100.00
2019-03-08T01:38:00.777Z,100.00
2019-03-08T01:40:30.007Z,100.00
2019-03-08T01:42:59.061Z,100.00
2019-03-08T01:45:28.368Z,100.00
2019-03-08T01:47:58.067Z,100.00
2019-03-08T01:50:27.618Z,100.00
2019-03-08T01:52:56.625Z,100.00
2019-03-08T01:55:25.760Z,100.00
2019-03-08T01:57:54.854Z,100.00
2019-03-08T02:00:23.857Z,100.00
2019-03-08T02:02:52.901Z,100.00
2019-03-08T02:05:22.593Z,100.00
2019-03-08T02:07:51.630Z,100.00
2019-03-08T02:10:20.753Z,100.00
2019-03-08T02:12:49.806Z,100.00
2019-03-08T02:15:19.547Z,100.00
2019-03-08T02:17:48.881Z,100.00
2019-03-08T02:20:19.321Z,100.00
2019-03-08T02:22:48.368Z,100.00
2019-03-08T02:25:17.472Z,100.00
2019-03-08T02:27:46.553Z,100.00
2019-03-08T02:30:17.541Z,100.00
2019-03-08T02:32:46.915Z,100.00
2019-03-08T02:35:17.007Z,100.00
2019-03-08T02:37:46.093Z,100.00
2019-03-08T02:40:46.295Z,100.00
2019-03-08T02:43:17.316Z,100.00
2019-03-08T02:45:46.315Z,100.00
2019-03-08T02:48:15.345Z,100.00
2019-03-08T02:50:44.393Z,100.00
2019-03-08T02:53:13.617Z,100.00
2019-03-08T02:55:42.656Z,100.00
2019-03-08T02:58:11.705Z,100.00
2019-03-08T03:00:44.825Z,100.00
2019-03-08T03:03:14.432Z,100.00
2019-03-08T03:05:43.459Z,100.00
2019-03-08T03:08:12.477Z,100.00
2019-03-08T03:10:41.532Z,100.00
2019-03-08T03:13:10.552Z,100.00
2019-03-08T03:15:39.557Z,100.00
2019-03-08T03:18:08.615Z,100.00
2019-03-08T03:20:37.808Z,100.00
2019-03-08T03:23:06.887Z,100.00
2019-03-08T03:25:35.893Z,100.00
2019-03-08T03:28:04.901Z,100.00
2019-03-08T03:30:34.146Z,100.00
2019-03-08T03:33:03.162Z,100.00
2019-03-08T03:35:32.448Z,100.00
2019-03-08T03:38:01.495Z,100.00
2019-03-08T03:40:30.871Z,100.00
2019-03-08T03:42:59.917Z,100.00
2019-03-08T03:45:28.925Z,100.00
2019-03-08T03:47:58.025Z,100.00
2019-03-08T03:50:27.387Z,100.00
2019-03-08T03:52:56.769Z,100.00
2019-03-08T03:55:25.914Z,100.00
2019-03-08T03:57:55.005Z,100.00
2019-03-08T04:00:24.578Z,100.00
2019-03-08T04:02:53.883Z,100.00
2019-03-08T04:05:23.021Z,100.00
2019-03-08T04:07:52.035Z,100.00
2019-03-08T04:10:21.187Z,100.00
2019-03-08T04:12:50.263Z,100.00
2019-03-08T04:15:20.881Z,100.00
2019-03-08T04:17:50.229Z,100.00
2019-03-08T04:20:19.620Z,100.00
2019-03-08T04:22:48.663Z,100.00
2019-03-08T04:25:17.779Z,100.00
2019-03-08T04:27:46.849Z,100.00
2019-03-08T04:30:16.598Z,100.00
2019-03-08T04:32:45.623Z,100.00
2019-03-08T04:35:15.055Z,100.00
2019-03-08T04:37:44.097Z,100.00
2019-03-08T04:40:13.319Z,100.00
2019-03-08T04:42:42.368Z,100.00
2019-03-08T04:45:12.421Z,100.00
2019-03-08T04:47:41.481Z,100.00
2019-03-08T04:50:11.141Z,100.00
2019-03-08T04:52:40.217Z,100.00
2019-03-08T04:55:11.374Z,100.00
2019-03-08T04:57:40.389Z,100.00
2019-03-08T05:00:10.945Z,100.00
2019-03-08T05:02:39.964Z,100.00
2019-03-08T05:05:09.084Z,100.00
2019-03-08T05:07:38.125Z,100.00
2019-03-08T05:10:08.759Z,100.00
2019-03-08T05:12:37.992Z,100.00
2019-03-08T05:15:07.248Z,100.00
2019-03-08T05:17:36.265Z,100.00
2019-03-08T05:20:05.882Z,100.00
2019-03-08T05:22:34.949Z,100.00
2019-03-08T05:25:04.311Z,100.00
2019-03-08T05:27:33.551Z,100.00
2019-03-08T05:30:02.608Z,100.00
2019-03-08T05:32:31.615Z,100.00
2019-03-08T05:35:00.626Z,100.00
2019-03-08T05:37:29.676Z,100.00
2019-03-08T05:39:58.711Z,100.00
2019-03-08T05:42:27.979Z,100.00
2019-03-08T05:44:57.034Z,100.00
2019-03-08T05:47:26.043Z,100.00
2019-03-08T05:49:55.097Z,100.00
2019-03-08T05:52:24.113Z,100.00
2019-03-08T05:54:53.121Z,100.00
2019-03-08T05:57:22.335Z,100.00
2019-03-08T05:59:51.676Z,100.00
2019-03-08T06:02:20.691Z,100.00
2019-03-08T06:04:49.698Z,100.00
2019-03-08T06:07:18.748Z,100.00
2019-03-08T06:09:47.766Z,100.00
2019-03-08T06:12:16.801Z,100.00
2019-03-08T06:14:45.748Z,100.00
2019-03-08T06:17:14.801Z,100.00
2019-03-08T06:19:43.809Z,100.00
2019-03-08T06:22:14.769Z,100.00
2019-03-08T06:24:43.717Z,100.00
2019-03-08T06:27:12.792Z,100.00
2019-03-08T06:29:41.801Z,100.00
2019-03-08T06:32:10.832Z,100.00
2019-03-08T06:34:39.904Z,100.00
2019-03-08T06:37:08.917Z,100.00
2019-03-08T06:39:37.963Z,100.00
2019-03-08T06:42:07.033Z,100.00
2019-03-08T06:44:36.366Z,100.00
2019-03-08T06:47:05.373Z,100.00
2019-03-08T06:49:34.431Z,100.00
2019-03-08T06:52:03.439Z,100.00
2019-03-08T06:54:32.462Z,100.00
2019-03-08T06:57:01.509Z,100.00
2019-03-08T06:59:41.028Z,100.00
2019-03-08T07:02:10.553Z,100.00
2019-03-08T07:04:39.500Z,100.00
2019-03-08T07:07:08.548Z,100.00
2019-03-08T07:09:37.525Z,100.00
2019-03-08T07:12:06.568Z,100.00
2019-03-08T07:14:35.952Z,100.00
2019-03-08T07:17:05.067Z,100.00
2019-03-08T07:19:40.943Z,100.00
2019-03-08T07:22:11.728Z,100.00
2019-03-08T07:24:49.257Z,100.00
2019-03-08T07:27:29.062Z,100.00
2019-03-08T07:30:16.484Z,100.00
2019-03-08T07:33:10.840Z,100.00
2019-03-08T07:36:11.062Z,100.00
2019-03-08T07:39:17.215Z,100.00
2019-03-08T07:41:56.493Z,100.00
2019-03-08T07:44:44.488Z,100.00
2019-03-08T07:47:44.524Z,100.00
2019-03-08T07:50:42.049Z,100.00
2019-03-08T07:53:28.684Z,100.00
2019-03-08T07:56:19.981Z,100.00
2019-03-08T07:59:11.209Z,100.00
2019-03-08T08:02:12.011Z,100.00
2019-03-08T08:05:06.050Z,100.00
2019-03-08T08:07:46.784Z,100.00
2019-03-08T08:10:49.920Z,100.00
2019-03-08T08:13:29.830Z,100.00
2019-03-08T08:16:20.579Z,100.00
2019-03-08T08:19:08.566Z,100.00
2019-03-08T08:22:05.818Z,100.00
2019-03-08T08:24:59.901Z,100.00
2019-03-08T08:27:39.653Z,100.00
2019-03-08T08:30:27.769Z,100.00
2019-03-08T08:33:28.477Z,100.00
2019-03-08T08:36:03.519Z,100.00
2019-03-08T08:38:48.765Z,100.00
2019-03-08T08:41:40.015Z,100.00
2019-03-08T08:44:29.077Z,100.00
2019-03-08T08:47:17.018Z,100.00
2019-03-08T08:50:03.012Z,100.00
2019-03-08T08:52:38.297Z,100.00
2019-03-08T08:55:25.418Z,100.00
2019-03-08T08:58:17.339Z,100.00
2019-03-08T09:01:08.136Z,100.00
2019-03-08T09:03:58.983Z,100.00
2019-03-08T09:06:46.647Z,100.00
2019-03-08T09:09:31.749Z,100.00
2019-03-08T09:12:06.775Z,100.00
2019-03-08T09:14:45.207Z,100.00
2019-03-08T09:17:27.408Z,100.00
2019-03-08T09:20:24.225Z,100.00
2019-03-08T09:23:05.016Z,100.00
2019-03-08T09:26:05.222Z,100.00
2019-03-08T09:28:40.482Z,100.00
2019-03-08T09:31:16.705Z,100.00
2019-03-08T09:33:55.258Z,100.00
2019-03-08T09:36:36.420Z,100.00
2019-03-08T09:39:19.268Z,100.00
2019-03-08T09:42:10.389Z,100.00
2019-03-08T09:44:53.085Z,100.00
2019-03-08T09:47:43.485Z,100.00
2019-03-08T09:50:31.849Z,100.00
2019-03-08T09:53:29.126Z,100.00
2019-03-08T09:56:17.167Z,100.00
2019-03-08T09:59:18.126Z,100.00
2019-03-08T10:02:12.455Z,100.00
2019-03-08T10:05:00.792Z,100.00
2019-03-08T10:07:55.009Z,100.00
2019-03-08T10:10:42.973Z,100.00
2019-03-08T10:13:21.406Z,100.00
2019-03-08T10:16:03.953Z,100.00
2019-03-08T10:18:42.836Z,100.00
2019-03-08T10:21:33.636Z,100.00
2019-03-08T10:24:30.781Z,97.19
2019-03-08T10:27:11.923Z,98.35
2019-03-08T10:30:06.158Z,99.18
2019-03-08T10:32:54.182Z,100.00
2019-03-08T10:35:41.184Z,100.00
2019-03-08T10:38:22.933Z,100.00
2019-03-08T10:41:10.161Z,99.64
2019-03-08T10:43:44.342Z,100.00
2019-03-08T10:46:31.066Z,100.00
2019-03-08T10:49:22.452Z,100.00
2019-03-08T10:52:23.127Z,100.00
2019-03-08T10:55:23.272Z,100.00
2019-03-08T10:58:01.438Z,100.00
2019-03-08T11:00:55.441Z,100.00
2019-03-08T11:03:43.435Z,100.00
2019-03-08T11:06:18.629Z,100.00
2019-03-08T11:09:12.510Z,99.63
2019-03-08T11:12:00.536Z,100.00
2019-03-08T11:14:48.178Z,96.92
2019-03-08T11:17:31.459Z,91.63
2019-03-08T11:20:34.542Z,87.23
2019-03-08T11:23:20.032Z,89.72
2019-03-08T11:26:00.037Z,89.84
2019-03-08T11:28:44.030Z,91.93
2019-03-08T11:31:21.566Z,88.94
2019-03-08T11:34:09.603Z,89.65
2019-03-08T11:37:04.269Z,87.26
2019-03-08T11:39:42.411Z,86.71
2019-03-08T11:42:22.211Z,86.23
2019-03-08T11:45:05.172Z,89.01
2019-03-08T11:48:08.301Z,83.95
2019-03-08T11:51:04.602Z,79.22
2019-03-08T11:53:56.167Z,79.24
2019-03-08T11:56:31.763Z,84.79
2019-03-08T11:59:22.672Z,82.84
2019-03-08T12:02:03.381Z,81.69
2019-03-08T12:04:54.968Z,87.34
2019-03-08T12:07:39.694Z,85.55
2019-03-08T12:10:26.092Z,90.71
2019-03-08T12:13:26.538Z,91.19
2019-03-08T12:16:14.502Z,92.45
2019-03-08T12:19:04.455Z,90.77
2019-03-08T12:22:10.822Z,93.30
2019-03-08T12:24:48.919Z,90.40
2019-03-08T12:27:39.768Z,91.51
2019-03-08T12:30:32.052Z,83.29
2019-03-08T12:33:29.068Z,86.16
2019-03-08T12:36:17.100Z,88.13
2019-03-08T12:39:05.168Z,88.25
2019-03-08T12:41:40.712Z,90.51
2019-03-08T12:44:44.046Z,86.33
2019-03-08T12:47:30.888Z,86.22
2019-03-08T12:50:37.316Z,85.58
2019-03-08T12:53:28.372Z,82.47
2019-03-08T12:56:19.394Z,84.42
2019-03-08T12:59:00.153Z,91.33
2019-03-08T13:01:43.970Z,93.50
2019-03-08T13:04:32.008Z,93.60
2019-03-08T13:07:14.002Z,95.12
2019-03-08T13:09:48.009Z,100.00
2019-03-08T13:12:17.473Z,100.00
2019-03-08T13:14:46.520Z,100.00
2019-03-08T13:17:15.543Z,100.00
2019-03-08T13:19:44.603Z,100.00
2019-03-08T13:22:13.611Z,100.00
2019-03-08T13:24:42.609Z,100.00
2019-03-08T13:27:11.680Z,100.00
2019-03-08T13:29:40.685Z,100.00
2019-03-08T13:32:10.125Z,100.00
2019-03-08T13:34:39.129Z,100.00
2019-03-08T13:37:08.139Z,100.00
2019-03-08T13:39:37.203Z,100.00
2019-03-08T13:42:06.249Z,100.00
2019-03-08T13:44:35.291Z,100.00
2019-03-08T13:47:04.623Z,100.00
2019-03-08T13:49:33.625Z,100.00
2019-03-08T13:52:02.985Z,100.00
2019-03-08T13:54:32.026Z,100.00
2019-03-08T13:57:01.032Z,99.25
2019-03-08T13:59:30.024Z,93.53
2019-03-08T14:01:59.128Z,92.45
2019-03-08T14:04:28.121Z,93.97
2019-03-08T14:06:57.168Z,93.86
2019-03-08T14:09:26.217Z,93.44
2019-03-08T14:11:55.253Z,95.62
2019-03-08T14:14:24.272Z,95.05
2019-03-08T14:16:53.324Z,94.32
2019-03-08T14:19:22.325Z,94.21
2019-03-08T14:21:51.351Z,96.11
2019-03-08T14:24:20.387Z,96.71
2019-03-08T14:26:49.353Z,96.53
2019-03-08T14:29:18.907Z,98.42
2019-03-08T14:31:58.195Z,98.85
2019-03-08T14:34:27.381Z,96.68
2019-03-08T14:36:56.394Z,100.00
2019-03-08T14:39:25.742Z,100.00
2019-03-08T14:42:23.107Z,100.00
2019-03-08T14:45:03.524Z,100.00
2019-03-08T14:47:34.380Z,98.07
2019-03-08T14:50:03.471Z,99.18
2019-03-08T14:52:32.876Z,99.35
2019-03-08T14:55:01.926Z,100.00
2019-03-08T14:57:31.264Z,100.00
2019-03-08T15:00:00.455Z,100.00
2019-03-08T15:02:29.501Z,100.00
2019-03-08T15:04:58.505Z,100.00
2019-03-08T15:07:27.567Z,100.00
2019-03-08T15:09:56.606Z,100.00
2019-03-08T15:12:25.671Z,100.00
2019-03-08T15:14:54.671Z,100.00
2019-03-08T15:17:23.680Z,100.00
2019-03-08T15:19:52.725Z,100.00
2019-03-08T15:22:21.706Z,100.00
2019-03-08T15:24:50.752Z,100.00
2019-03-08T15:27:19.977Z,100.00
2019-03-08T15:29:54.380Z,100.00
2019-03-08T15:32:19.771Z,100.00
2019-03-08T15:34:48.822Z,100.00
2019-03-08T15:37:17.866Z,100.00
2019-03-08T15:39:47.568Z,100.00
2019-03-08T15:42:16.617Z,100.00
2019-03-08T15:44:45.661Z,100.00
2019-03-08T15:47:23.248Z,100.00
2019-03-08T15:49:45.703Z,100.00
2019-03-08T15:52:14.653Z,100.00
2019-03-08T15:54:43.673Z,100.00
2019-03-08T15:57:12.717Z,100.00
2019-03-08T15:59:41.730Z,100.00
2019-03-08T16:02:10.881Z,100.00
2019-03-08T16:04:39.953Z,100.00
2019-03-08T16:07:08.972Z,100.00
2019-03-08T16:09:37.977Z,100.00
2019-03-08T16:12:07.020Z,100.00
2019-03-08T16:14:35.956Z,100.00
2019-03-08T16:17:05.004Z,100.00
2019-03-08T16:19:34.201Z,100.00
2019-03-08T16:22:03.263Z,100.00
2019-03-08T16:24:32.772Z,100.00
2019-03-08T16:27:02.434Z,100.00
2019-03-08T16:29:32.689Z,100.00
2019-03-08T16:32:13.452Z,100.00
2019-03-08T16:34:42.081Z,100.00
2019-03-08T16:37:29.717Z,100.00
2019-03-08T16:40:08.954Z,100.00
2019-03-08T16:42:43.257Z,100.00
2019-03-08T16:45:39.810Z,100.00
2019-03-08T16:48:27.446Z,100.00
2019-03-08T16:51:17.834Z,100.00
2019-03-08T16:54:00.890Z,100.00
2019-03-08T16:56:54.963Z,100.00
2019-03-08T16:59:30.692Z,100.00
2019-03-08T17:02:14.491Z,100.00
2019-03-08T17:05:20.945Z,100.00
2019-03-08T17:08:12.038Z,100.00
2019-03-08T17:10:47.318Z,100.00
2019-03-08T17:13:47.722Z,100.00
2019-03-08T17:16:35.784Z,100.00
2019-03-08T17:19:42.255Z,100.00
2019-03-08T17:22:45.517Z,100.00
2019-03-08T17:25:32.107Z,100.00
2019-03-08T17:28:13.990Z,100.00
2019-03-08T17:31:10.823Z,100.00
2019-03-08T17:33:57.915Z,100.00
2019-03-08T17:36:33.754Z,100.00
2019-03-08T17:39:13.046Z,100.00
2019-03-08T17:41:59.759Z,100.00
2019-03-08T17:44:36.490Z,100.00
2019-03-08T17:47:19.478Z,100.00
2019-03-08T17:50:01.103Z,100.00
2019-03-08T17:52:52.301Z,100.00
2019-03-08T17:55:40.294Z,100.00
2019-03-08T17:58:40.555Z,100.00
2019-03-08T18:01:46.733Z,100.00
2019-03-08T18:04:26.531Z,100.00
2019-03-08T18:07:03.839Z,100.00
2019-03-08T18:09:49.822Z,100.00
2019-03-08T18:12:36.960Z,100.00
2019-03-08T18:15:30.873Z,100.00
2019-03-08T18:18:31.375Z,100.00
2019-03-08T18:21:07.603Z,100.00
2019-03-08T18:23:58.446Z,100.00
2019-03-08T18:26:55.557Z,100.00
2019-03-08T18:29:48.015Z,100.00
2019-03-08T18:32:36.049Z,100.00
2019-03-08T18:35:36.487Z,100.00
2019-03-08T18:38:33.647Z,100.00
2019-03-08T18:41:24.934Z,100.00
2019-03-08T18:44:12.527Z,100.00
2019-03-08T18:46:50.682Z,100.00
2019-03-08T18:49:38.742Z,100.00
2019-03-08T18:52:29.688Z,100.00
2019-03-08T18:55:06.670Z,100.00
2019-03-08T18:57:56.590Z,100.00
2019-03-08T19:00:33.474Z,100.00
2019-03-08T19:03:21.516Z,100.00
2019-03-08T19:06:00.397Z,100.00
2019-03-08T19:08:48.428Z,100.00
2019-03-08T19:11:39.514Z,100.00
2019-03-08T19:14:26.419Z,100.00
2019-03-08T19:17:15.167Z,100.00
2019-03-08T19:20:01.923Z,100.00
2019-03-08T19:22:45.600Z,100.00
2019-03-08T19:25:43.147Z,100.00
2019-03-08T19:28:34.028Z,100.00
2019-03-08T19:31:28.245Z,100.00
2019-03-08T19:34:16.499Z,100.00
2019-03-08T19:37:07.401Z,100.00
2019-03-08T19:39:45.789Z,100.00
2019-03-08T19:42:26.697Z,100.00
2019-03-08T19:45:17.552Z,100.00
2019-03-08T19:48:04.898Z,100.00
2019-03-08T19:51:08.353Z,100.00
2019-03-08T19:53:54.693Z,100.00
2019-03-08T19:56:54.888Z,100.00
2019-03-08T19:59:29.747Z,100.00
2019-03-08T20:02:30.077Z,100.00
2019-03-08T20:05:08.895Z,100.00
2019-03-08T20:07:59.991Z,100.00
2019-03-08T20:10:48.165Z,100.00
2019-03-08T20:13:25.929Z,100.00
2019-03-08T20:16:06.730Z,100.00
2019-03-08T20:18:55.935Z,100.00
2019-03-08T20:21:31.833Z,100.00
2019-03-08T20:24:20.145Z,100.00
2019-03-08T20:26:56.693Z,100.00
2019-03-08T20:29:35.930Z,100.00
2019-03-08T20:32:30.173Z,100.00
2019-03-08T20:35:27.385Z,100.00
2019-03-08T20:38:06.250Z,100.00
2019-03-08T20:41:00.395Z,100.00
2019-03-08T20:43:44.508Z,100.00
2019-03-08T20:46:28.194Z,100.00
2019-03-08T20:48:57.438Z,100.00
2019-03-08T20:51:26.460Z,100.00
2019-03-08T20:53:55.515Z,100.00
2019-03-08T20:56:24.811Z,100.00
2019-03-08T20:58:53.877Z,100.00
2019-03-08T21:01:23.165Z,100.00
2019-03-08T21:03:52.222Z,100.00
2019-03-08T21:06:21.377Z,100.00
2019-03-08T21:08:50.480Z,100.00
2019-03-08T21:11:19.499Z,100.00
2019-03-08T21:13:48.502Z,100.00
2019-03-08T21:16:17.518Z,100.00
2019-03-08T21:18:46.600Z,100.00
2019-03-08T21:21:15.657Z,100.00
2019-03-08T21:23:44.702Z,100.00
2019-03-08T21:26:13.722Z,100.00
2019-03-08T21:28:42.987Z,100.00
2019-03-08T21:31:12.330Z,100.00
2019-03-08T21:33:41.631Z,100.00
2019-03-08T21:36:10.680Z,100.00
2019-03-08T21:38:39.694Z,100.00
2019-03-08T21:41:08.919Z,100.00
2019-03-08T21:43:37.974Z,100.00
2019-03-08T21:46:06.986Z,100.00
2019-03-08T21:48:36.041Z,100.00
2019-03-08T21:51:05.157Z,100.00
2019-03-08T21:53:34.168Z,100.00
2019-03-08T21:56:03.256Z,100.00
2019-03-08T21:58:32.282Z,100.00
2019-03-08T22:01:01.332Z,100.00
2019-03-08T22:03:30.393Z,100.00
2019-03-08T22:05:59.401Z,100.00
2019-03-08T22:08:28.425Z,100.00
2019-03-08T22:11:13.891Z,100.00
2019-03-08T22:13:42.995Z,100.00
2019-03-08T22:16:12.021Z,100.00
2019-03-08T22:18:41.026Z,100.00
2019-03-08T22:21:10.434Z,100.00
2019-03-08T22:23:39.455Z,100.00
2019-03-08T22:26:08.469Z,100.00
2019-03-08T22:28:37.524Z,100.00
2019-03-08T22:31:06.734Z,100.00
2019-03-08T22:33:35.709Z,100.00
2019-03-08T22:36:05.094Z,100.00
2019-03-08T22:38:34.162Z,100.00
2019-03-08T22:41:03.226Z,100.00
2019-03-08T22:43:32.613Z,100.00
2019-03-08T22:46:01.666Z,100.00
2019-03-08T22:48:30.678Z,100.00
2019-03-08T22:50:59.731Z,100.00
2019-03-08T22:53:28.721Z,100.00
2019-03-08T22:55:58.083Z,100.00
2019-03-08T22:58:27.140Z,100.00
2019-03-08T23:01:15.898Z,100.00
2019-03-08T23:03:44.957Z,100.00
2019-03-08T23:06:14.246Z,100.00
2019-03-08T23:08:43.316Z,100.00
2019-03-08T23:11:12.347Z,100.00
2019-03-08T23:13:41.359Z,100.00
2019-03-08T23:16:10.410Z,100.00
2019-03-08T23:18:39.544Z,100.00
2019-03-08T23:21:08.604Z,100.00
2019-03-08T23:23:37.626Z,100.00
2019-03-08T23:26:06.634Z,100.00
2019-03-08T23:28:53.382Z,100.00
2019-03-08T23:31:56.693Z,100.00
2019-03-08T23:34:25.770Z,100.00
2019-03-08T23:36:54.814Z,100.00
2019-03-08T23:39:23.866Z,100.00
2019-03-08T23:41:52.936Z,100.00
2019-03-08T23:44:21.947Z,100.00
2019-03-08T23:46:51.007Z,100.00
2019-03-08T23:49:20.228Z,100.00
2019-03-08T23:51:49.276Z,100.00
2019-03-08T23:54:18.366Z,100.00
2019-03-08T23:56:47.418Z,100.00
2019-03-08T23:59:16.424Z,100.00
